sensor_id;sensor_type;location;lat;lon;timestamp;pressure;altitude;pressure_sealevel;temperature;humidity
49813;BME280;35706;52.100;5.056;2022-11-09T00:00:37;100478.31;;;13.47;81.42
49813;BME280;35706;52.100;5.056;2022-11-09T00:01:37;100480.94;;;13.47;81.71
49813;BME280;35706;52.100;5.056;2022-11-09T00:02:38;100492.66;;;13.52;81.08
49813;BME280;35706;52.100;5.056;2022-11-09T00:03:38;100477.31;;;13.56;81.10
49813;BME280;35706;52.100;5.056;2022-11-09T00:04:38;100476.13;;;13.50;81.28
49813;BME280;35706;52.100;5.056;2022-11-09T00:05:39;100472.34;;;13.44;81.41
49813;BME280;35706;52.100;5.056;2022-11-09T00:06:39;100482.91;;;13.44;81.48
49813;BME280;35706;52.100;5.056;2022-11-09T00:07:39;100484.06;;;13.50;81.27
49813;BME280;35706;52.100;5.056;2022-11-09T00:08:40;100473.03;;;13.55;80.74
49813;BME280;35706;52.100;5.056;2022-11-09T00:09:40;100485.22;;;13.56;80.81
49813;BME280;35706;52.100;5.056;2022-11-09T00:10:41;100479.28;;;13.54;80.96
49813;BME280;35706;52.100;5.056;2022-11-09T00:11:41;100484.56;;;13.54;80.84
49813;BME280;35706;52.100;5.056;2022-11-09T00:12:41;100490.00;;;13.52;80.94
49813;BME280;35706;52.100;5.056;2022-11-09T00:13:42;100486.53;;;13.52;80.95
49813;BME280;35706;52.100;5.056;2022-11-09T00:14:43;100492.31;;;13.47;81.34
49813;BME280;35706;52.100;5.056;2022-11-09T00:15:43;100492.50;;;13.54;81.15
49813;BME280;35706;52.100;5.056;2022-11-09T00:16:44;100491.81;;;13.52;81.06
49813;BME280;35706;52.100;5.056;2022-11-09T00:17:44;100473.34;;;13.52;81.24
49813;BME280;35706;52.100;5.056;2022-11-09T00:18:44;100486.69;;;13.50;81.26
49813;BME280;35706;52.100;5.056;2022-11-09T00:19:48;100477.28;;;13.48;80.99
49813;BME280;35706;52.100;5.056;2022-11-09T00:20:48;100501.88;;;13.48;81.06
49813;BME280;35706;52.100;5.056;2022-11-09T00:21:49;100495.63;;;13.49;80.79
49813;BME280;35706;52.100;5.056;2022-11-09T00:22:49;100482.28;;;13.51;80.78
49813;BME280;35706;52.100;5.056;2022-11-09T00:23:50;100493.81;;;13.50;80.94
49813;BME280;35706;52.100;5.056;2022-11-09T00:24:50;100496.13;;;13.53;80.81
49813;BME280;35706;52.100;5.056;2022-11-09T00:25:51;100491.00;;;13.51;80.72
49813;BME280;35706;52.100;5.056;2022-11-09T00:26:51;100497.25;;;13.50;80.69
49813;BME280;35706;52.100;5.056;2022-11-09T00:27:51;100489.69;;;13.55;80.37
49813;BME280;35706;52.100;5.056;2022-11-09T00:28:52;100518.22;;;13.52;80.31
49813;BME280;35706;52.100;5.056;2022-11-09T00:29:52;100495.78;;;13.48;80.46
49813;BME280;35706;52.100;5.056;2022-11-09T00:31:00;100497.91;;;13.52;80.44
49813;BME280;35706;52.100;5.056;2022-11-09T00:32:01;100495.28;;;13.52;80.48
49813;BME280;35706;52.100;5.056;2022-11-09T00:33:01;100496.28;;;13.51;80.09
49813;BME280;35706;52.100;5.056;2022-11-09T00:34:01;100495.47;;;13.51;80.08
49813;BME280;35706;52.100;5.056;2022-11-09T00:35:02;100491.31;;;13.56;79.72
49813;BME280;35706;52.100;5.056;2022-11-09T00:36:07;100493.31;;;13.54;79.52
49813;BME280;35706;52.100;5.056;2022-11-09T00:37:09;100489.34;;;13.50;79.79
49813;BME280;35706;52.100;5.056;2022-11-09T00:38:09;100481.25;;;13.52;79.87
49813;BME280;35706;52.100;5.056;2022-11-09T00:39:09;100488.53;;;13.50;79.63
49813;BME280;35706;52.100;5.056;2022-11-09T00:40:10;100495.47;;;13.51;79.63
49813;BME280;35706;52.100;5.056;2022-11-09T00:41:10;100487.38;;;13.52;79.30
49813;BME280;35706;52.100;5.056;2022-11-09T00:42:11;100488.50;;;13.41;79.67
49813;BME280;35706;52.100;5.056;2022-11-09T00:43:11;100488.19;;;13.44;79.58
49813;BME280;35706;52.100;5.056;2022-11-09T00:44:11;100482.91;;;13.44;79.71
49813;BME280;35706;52.100;5.056;2022-11-09T00:45:12;100484.22;;;13.40;79.44
49813;BME280;35706;52.100;5.056;2022-11-09T00:46:12;100473.53;;;13.42;79.17
49813;BME280;35706;52.100;5.056;2022-11-09T00:47:13;100477.28;;;13.39;79.39
49813;BME280;35706;52.100;5.056;2022-11-09T00:48:13;100483.56;;;13.38;79.63
49813;BME280;35706;52.100;5.056;2022-11-09T00:49:13;100477.47;;;13.38;79.73
49813;BME280;35706;52.100;5.056;2022-11-09T00:50:13;100489.34;;;13.34;79.51
49813;BME280;35706;52.100;5.056;2022-11-09T00:51:14;100478.59;;;13.35;79.47
49813;BME280;35706;52.100;5.056;2022-11-09T00:52:14;100489.81;;;13.29;79.70
49813;BME280;35706;52.100;5.056;2022-11-09T00:53:14;100483.06;;;13.35;79.42
49813;BME280;35706;52.100;5.056;2022-11-09T00:54:15;100474.47;;;13.33;79.45
49813;BME280;35706;52.100;5.056;2022-11-09T00:55:16;100485.03;;;13.33;79.41
49813;BME280;35706;52.100;5.056;2022-11-09T00:56:17;100478.94;;;13.32;79.35
49813;BME280;35706;52.100;5.056;2022-11-09T00:57:17;100473.81;;;13.31;79.31
49813;BME280;35706;52.100;5.056;2022-11-09T00:58:17;100481.25;;;13.35;79.06
49813;BME280;35706;52.100;5.056;2022-11-09T00:59:17;100487.31;;;13.28;79.27
49813;BME280;35706;52.100;5.056;2022-11-09T01:00:20;100484.00;;;13.26;79.54
49813;BME280;35706;52.100;5.056;2022-11-09T01:01:21;100493.41;;;13.28;79.23
49813;BME280;35706;52.100;5.056;2022-11-09T01:02:22;100483.50;;;13.22;79.23
49813;BME280;35706;52.100;5.056;2022-11-09T01:03:23;100486.28;;;13.20;79.35
49813;BME280;35706;52.100;5.056;2022-11-09T01:04:23;100489.28;;;13.26;78.94
49813;BME280;35706;52.100;5.056;2022-11-09T01:05:23;100484.00;;;13.17;79.25
49813;BME280;35706;52.100;5.056;2022-11-09T01:06:24;100484.84;;;13.26;79.00
49813;BME280;35706;52.100;5.056;2022-11-09T01:07:25;100483.19;;;13.25;79.17
49813;BME280;35706;52.100;5.056;2022-11-09T01:08:25;100474.44;;;13.24;78.94
49813;BME280;35706;52.100;5.056;2022-11-09T01:09:26;100475.28;;;13.25;78.99
49813;BME280;35706;52.100;5.056;2022-11-09T01:10:27;100480.19;;;13.20;78.73
49813;BME280;35706;52.100;5.056;2022-11-09T01:11:27;100487.16;;;13.21;78.83
49813;BME280;35706;52.100;5.056;2022-11-09T01:12:27;100483.50;;;13.22;78.70
49813;BME280;35706;52.100;5.056;2022-11-09T01:13:28;100488.47;;;13.17;78.89
49813;BME280;35706;52.100;5.056;2022-11-09T01:14:28;100478.06;;;13.15;79.03
49813;BME280;35706;52.100;5.056;2022-11-09T01:15:28;100476.22;;;13.16;78.97
49813;BME280;35706;52.100;5.056;2022-11-09T01:16:28;100482.31;;;13.16;78.65
49813;BME280;35706;52.100;5.056;2022-11-09T01:17:29;100477.72;;;13.18;78.42
49813;BME280;35706;52.100;5.056;2022-11-09T01:18:29;100480.53;;;13.17;78.79
49813;BME280;35706;52.100;5.056;2022-11-09T01:19:30;100486.94;;;13.14;78.94
49813;BME280;35706;52.100;5.056;2022-11-09T01:20:30;100480.84;;;13.14;78.67
49813;BME280;35706;52.100;5.056;2022-11-09T01:21:30;100494.56;;;13.17;78.52
49813;BME280;35706;52.100;5.056;2022-11-09T01:22:30;100492.22;;;13.14;78.40
49813;BME280;35706;52.100;5.056;2022-11-09T01:23:31;100476.72;;;13.11;78.69
49813;BME280;35706;52.100;5.056;2022-11-09T01:24:32;100491.09;;;13.17;78.33
49813;BME280;35706;52.100;5.056;2022-11-09T01:25:32;100494.72;;;13.16;78.37
